Hallam, Nebraska
Current Conditions -  °F | °C
As of 4:35 AM on Thursday 18 Dec 2014 (Local Time) from KBIE Reporting Station
Light Snow Light Snow  
Wind Chill: -3°   Ceiling: 1000
Heat Index: -3°   Visibility: 1.7mi
Dew Point: -4°   Wind: 0mph
Humidity: 93%   Direction: NA
Pressure: 30.19"   Gusts: NA
Location:  40.54°N, 96.79°W
Report Text: KBIE 181035Z AUTO 00000KT 1 3/4SM -SN OVC010 M03/M04 A3019 RMK AO2 T10301040
Loading
Personal Weather Stations






























Interactive Weather Map New forecast layout! Learn more

10-Day Weather Forecast

Advertisements
Track Severe Weather on mobile